Time;durP1;ratioP1;P1;durP2;ratioP2;P2;SDS_P1;SDS_P2;PMS_P1;PMS_P2;Temp;Humidity;BMP_temperature;BMP_pressure;BME280_temperature;BME280_humidity;BME280_pressure;Samples;Min_cycle;Max_cycle;Signal;HPM_P1;HPM_P2
2022/11/26 00:01:42;;;;;;;4.70;4.00;;;3.50;99.90;;;;;;5094879;28;21048;-49
2022/11/26 00:04:09;;;;;;;6.30;4.50;;;3.50;99.90;;;;;;5094799;28;20512;-49
2022/11/26 00:06:38;;;;;;;4.97;3.77;;;3.50;99.90;;;;;;5094637;28;20441;-50
2022/11/26 00:09:11;;;;;;;5.07;4.10;;;3.40;99.90;;;;;;5094965;28;20479;-49
2022/11/26 00:11:38;;;;;;;6.13;4.53;;;3.50;99.90;;;;;;5093749;28;20540;-50
2022/11/26 00:14:13;;;;;;;3.80;3.47;;;3.50;99.90;;;;;;5094397;28;20524;-48
2022/11/26 00:16:40;;;;;;;4.33;3.17;;;3.60;99.90;;;;;;5094824;28;20446;-51
2022/11/26 00:19:07;;;;;;;3.20;2.83;;;3.50;99.90;;;;;;5094581;28;20441;-48
2022/11/26 00:21:37;;;;;;;3.10;2.80;;;3.50;99.90;;;;;;5094250;28;20482;-48
2022/11/26 00:24:06;;;;;;;2.67;2.43;;;3.30;99.90;;;;;;5094265;28;20988;-48
2022/11/26 00:26:34;;;;;;;2.90;2.60;;;3.30;99.90;;;;;;5094605;28;20435;-49
2022/11/26 00:29:01;;;;;;;2.47;2.20;;;3.20;99.90;;;;;;5094649;28;20527;-48
2022/11/26 00:31:29;;;;;;;2.43;1.90;;;3.20;99.90;;;;;;5094358;28;20474;-48
2022/11/26 00:33:56;;;;;;;2.57;2.20;;;3.10;99.90;;;;;;5093904;28;20440;-48
2022/11/26 00:36:26;;;;;;;3.23;2.17;;;3.10;99.90;;;;;;5094597;28;20443;-48
2022/11/26 00:38:56;;;;;;;2.37;2.10;;;3.30;99.90;;;;;;5094368;28;20440;-48
2022/11/26 00:41:26;;;;;;;2.70;2.43;;;3.40;99.90;;;;;;5094076;28;20558;-48
2022/11/26 00:43:53;;;;;;;2.00;1.80;;;3.40;99.90;;;;;;5094298;28;20449;-49
2022/11/26 00:46:21;;;;;;;1.90;1.70;;;3.40;99.90;;;;;;5094078;28;20454;-50
2022/11/26 00:48:50;;;;;;;4.53;1.87;;;3.40;99.90;;;;;;5094268;28;20444;-51
2022/11/26 00:51:20;;;;;;;3.00;2.10;;;3.40;99.90;;;;;;5094031;28;20465;-48
2022/11/26 00:53:48;;;;;;;2.03;1.77;;;3.50;99.90;;;;;;5093754;28;20443;-48
2022/11/26 00:56:18;;;;;;;4.03;2.20;;;3.40;99.90;;;;;;5093727;28;20523;-48
2022/11/26 00:58:46;;;;;;;4.20;3.40;;;3.40;99.90;;;;;;5093810;28;20444;-48
2022/11/26 01:01:16;;;;;;;4.20;3.80;;;3.50;99.90;;;;;;5093825;28;20478;-51
2022/11/26 01:03:44;;;;;;;3.90;3.10;;;3.50;99.90;;;;;;5093975;28;20530;-48
2022/11/26 01:06:17;;;;;;;3.97;2.70;;;3.40;99.90;;;;;;5093850;28;20551;-48
2022/11/26 01:08:44;;;;;;;3.57;2.50;;;3.50;99.90;;;;;;5093485;28;20523;-48
2022/11/26 01:11:15;;;;;;;2.83;2.33;;;3.50;99.90;;;;;;5093802;28;20543;-48
2022/11/26 01:13:42;;;;;;;5.03;4.00;;;3.50;99.90;;;;;;5093424;28;20516;-51
2022/11/26 01:16:20;;;;;;;6.40;4.97;;;3.40;99.90;;;;;;5093380;28;20451;-48
2022/11/26 01:18:47;;;;;;;9.70;5.07;;;3.40;99.90;;;;;;5093899;28;20586;-49
2022/11/26 01:21:16;;;;;;;6.07;4.50;;;3.30;99.90;;;;;;5092944;28;20988;-50
2022/11/26 01:23:43;;;;;;;4.60;4.10;;;3.50;99.90;;;;;;5093036;28;20441;-48
2022/11/26 01:26:15;;;;;;;4.47;3.93;;;3.50;99.90;;;;;;5093309;28;20448;-48
2022/11/26 01:28:43;;;;;;;4.63;3.17;;;3.50;99.90;;;;;;5093648;28;20540;-49
2022/11/26 01:31:15;;;;;;;3.50;3.20;;;3.50;99.90;;;;;;5092959;28;20565;-49
2022/11/26 01:33:42;;;;;;;2.37;1.83;;;3.50;99.90;;;;;;5093041;28;20436;-48
2022/11/26 01:36:27;;;;;;;2.00;1.73;;;3.30;99.90;;;;;;5093188;28;20974;-49
2022/11/26 01:38:54;;;;;;;3.30;1.77;;;3.30;99.90;;;;;;5093404;28;20529;-48
2022/11/26 01:41:32;;;;;;;2.90;1.80;;;3.40;99.90;;;;;;5092908;28;20539;-48
2022/11/26 01:44:00;;;;;;;2.70;2.27;;;3.50;99.90;;;;;;5092760;28;20445;-48
2022/11/26 01:46:30;;;;;;;1.80;1.60;;;3.50;99.90;;;;;;5092862;28;20527;-48
2022/11/26 01:49:16;;;;;;;3.00;1.57;;;3.60;99.90;;;;;;5093566;28;20525;-48
2022/11/26 01:51:45;;;;;;;2.47;1.90;;;3.60;99.90;;;;;;5092910;28;20449;-48
2022/11/26 01:54:13;;;;;;;2.50;1.43;;;3.60;99.90;;;;;;5092613;28;20534;-48
2022/11/26 01:56:44;;;;;;;2.23;1.60;;;3.60;99.90;;;;;;5092245;28;20531;-48
2022/11/26 01:59:17;;;;;;;10.13;1.70;;;3.60;99.90;;;;;;5092870;28;20883;-51
2022/11/26 02:01:44;;;;;;;2.60;1.47;;;3.50;99.90;;;;;;5092674;28;20516;-48
2022/11/26 02:04:16;;;;;;;1.53;1.40;;;3.40;99.90;;;;;;5092489;28;20480;-50
2022/11/26 02:06:48;;;;;;;2.60;2.13;;;3.50;99.90;;;;;;5092773;28;20484;-48
2022/11/26 02:09:15;;;;;;;4.03;3.10;;;3.60;99.90;;;;;;5092774;28;20479;-49
2022/11/26 02:11:42;;;;;;;3.83;3.50;;;3.50;99.90;;;;;;5092637;28;20546;-48
2022/11/26 02:14:15;;;;;;;4.23;3.50;;;3.50;99.90;;;;;;5092134;28;20500;-51
2022/11/26 02:17:08;;;;;;;3.17;2.87;;;3.40;99.90;;;;;;5092076;28;20473;-48
2022/11/26 02:20:12;;;;;;;3.90;2.40;;;3.40;99.90;;;;;;5092271;28;20469;-48
2022/11/26 02:23:04;;;;;;;3.40;2.00;;;3.40;99.90;;;;;;5092391;28;20519;-48
2022/11/26 02:25:48;;;;;;;2.90;1.50;;;3.50;99.90;;;;;;5092073;28;20894;-48
2022/11/26 02:28:26;;;;;;;4.00;1.47;;;3.50;99.90;;;;;;5092554;28;20550;-48
2022/11/26 02:30:59;;;;;;;4.13;1.60;;;3.50;99.90;;;;;;5093437;28;20560;-49
2022/11/26 02:33:30;;;;;;;2.47;1.70;;;3.50;99.90;;;;;;5091791;28;20527;-48
2022/11/26 02:36:01;;;;;;;1.40;1.20;;;3.50;99.90;;;;;;5092177;28;20517;-48
2022/11/26 02:38:29;;;;;;;1.97;1.20;;;3.40;99.90;;;;;;5092218;28;20444;-48
2022/11/26 02:40:57;;;;;;;1.77;1.20;;;3.30;99.90;;;;;;5091848;28;20467;-48
2022/11/26 02:43:25;;;;;;;1.73;1.60;;;3.20;99.90;;;;;;5091498;28;20473;-48
2022/11/26 02:45:58;;;;;;;2.63;1.50;;;3.20;99.90;;;;;;5091893;28;20451;-48
2022/11/26 02:48:29;;;;;;;1.40;1.07;;;3.20;99.90;;;;;;5091685;28;20454;-48
2022/11/26 02:51:00;;;;;;;1.63;1.43;;;3.30;99.90;;;;;;5092086;28;20557;-48
2022/11/26 02:53:30;;;;;;;1.97;1.77;;;3.40;99.90;;;;;;5091655;28;20531;-48
2022/11/26 02:56:03;;;;;;;1.80;1.37;;;3.30;99.90;;;;;;5092359;28;20535;-47
2022/11/26 02:58:32;;;;;;;1.87;1.60;;;3.40;99.90;;;;;;5092075;28;20709;-48
2022/11/26 03:01:04;;;;;;;2.57;2.17;;;3.20;99.90;;;;;;5091649;28;20487;-49
2022/11/26 03:03:35;;;;;;;3.30;2.93;;;2.60;99.90;;;;;;5091468;28;20566;-50
2022/11/26 03:06:07;;;;;;;3.70;3.40;;;2.40;99.90;;;;;;5091521;28;20832;-50
2022/11/26 03:08:34;;;;;;;4.30;2.27;;;2.40;99.90;;;;;;5091442;28;20523;-48
2022/11/26 03:11:01;;;;;;;2.90;2.47;;;2.50;99.90;;;;;;5091673;28;20468;-50
2022/11/26 03:13:28;;;;;;;3.60;2.10;;;2.50;99.90;;;;;;5091196;28;20873;-48
2022/11/26 03:15:55;;;;;;;3.57;2.10;;;2.60;99.90;;;;;;5091573;28;20440;-48
2022/11/26 03:18:23;;;;;;;4.47;3.63;;;2.80;99.90;;;;;;5091572;28;20443;-48
2022/11/26 03:20:50;;;;;;;3.63;3.30;;;2.90;99.90;;;;;;5091297;28;20546;-48
2022/11/26 03:23:17;;;;;;;3.80;2.70;;;2.90;99.90;;;;;;5090881;28;20473;-48
2022/11/26 03:25:44;;;;;;;2.43;2.10;;;2.70;99.90;;;;;;5091732;28;20535;-48
2022/11/26 03:28:10;;;;;;;4.30;3.00;;;2.60;99.90;;;;;;5091467;28;20440;-48
2022/11/26 03:30:37;;;;;;;3.70;2.93;;;2.60;99.90;;;;;;5091151;28;20912;-48
2022/11/26 03:33:04;;;;;;;4.53;2.93;;;2.80;99.90;;;;;;5094661;28;20431;-48
2022/11/26 03:35:32;;;;;;;4.37;3.43;;;2.80;99.90;;;;;;5095467;28;20432;-48
2022/11/26 03:37:59;;;;;;;3.50;2.37;;;2.90;99.90;;;;;;5095588;28;20524;-48
2022/11/26 03:40:26;;;;;;;2.60;2.40;;;2.70;99.90;;;;;;5095582;28;20438;-48
2022/11/26 03:42:53;;;;;;;3.60;2.07;;;2.80;99.90;;;;;;5095023;28;20529;-48
2022/11/26 03:45:20;;;;;;;2.47;1.60;;;2.80;99.90;;;;;;5095289;28;20527;-48
2022/11/26 03:47:46;;;;;;;3.80;2.20;;;2.90;99.90;;;;;;5095194;28;20454;-48
2022/11/26 03:50:13;;;;;;;4.33;2.37;;;2.70;99.90;;;;;;5094995;28;21049;-51
2022/11/26 03:52:41;;;;;;;2.23;1.63;;;2.70;99.90;;;;;;5095485;28;20459;-49
2022/11/26 03:55:09;;;;;;;2.07;1.90;;;2.70;99.90;;;;;;5094902;28;20435;-48
2022/11/26 03:57:36;;;;;;;2.57;1.93;;;2.70;99.90;;;;;;5095337;28;20475;-49
2022/11/26 04:00:07;;;;;;;2.67;2.10;;;2.70;99.90;;;;;;5095014;28;20482;-48
2022/11/26 04:02:34;;;;;;;2.57;2.37;;;2.60;99.90;;;;;;5094772;28;20480;-48
2022/11/26 04:05:01;;;;;;;2.70;2.30;;;2.70;99.90;;;;;;5094744;28;20532;-48
2022/11/26 04:07:28;;;;;;;3.10;2.80;;;2.60;99.90;;;;;;5095008;28;20524;-48
2022/11/26 04:09:56;;;;;;;3.50;2.47;;;2.70;99.90;;;;;;5095085;28;20804;-49
2022/11/26 04:12:23;;;;;;;4.53;2.50;;;2.80;99.90;;;;;;5094725;28;20545;-49
2022/11/26 04:14:50;;;;;;;2.83;2.07;;;2.90;99.90;;;;;;5094574;28;20531;-49
2022/11/26 04:17:17;;;;;;;2.60;1.87;;;2.70;99.90;;;;;;5094683;28;20471;-48
2022/11/26 04:19:43;;;;;;;1.70;1.60;;;2.60;99.90;;;;;;5094715;28;20439;-49
2022/11/26 04:22:10;;;;;;;1.77;1.43;;;2.70;99.90;;;;;;5094498;28;20472;-48
2022/11/26 04:24:37;;;;;;;1.53;1.30;;;2.90;99.90;;;;;;5094325;28;20454;-48
2022/11/26 04:27:05;;;;;;;3.83;2.40;;;2.90;99.90;;;;;;5094540;28;20479;-50
2022/11/26 04:29:32;;;;;;;3.97;3.50;;;3.00;99.90;;;;;;5094238;28;20952;-48
2022/11/26 04:31:59;;;;;;;4.00;2.90;;;2.90;99.90;;;;;;5094172;28;20480;-48
2022/11/26 04:34:26;;;;;;;3.80;2.83;;;2.70;99.90;;;;;;5094268;28;20444;-48
2022/11/26 04:36:53;;;;;;;2.77;2.57;;;2.80;99.90;;;;;;5094343;28;20791;-49
2022/11/26 04:39:19;;;;;;;5.30;3.80;;;2.80;99.90;;;;;;5094103;28;20959;-48
2022/11/26 04:41:47;;;;;;;2.77;2.53;;;2.80;99.90;;;;;;5094116;28;20897;-48
2022/11/26 04:44:15;;;;;;;2.67;2.20;;;2.90;99.90;;;;;;5092991;28;20480;-48
2022/11/26 04:46:42;;;;;;;4.63;3.57;;;2.90;99.90;;;;;;5094378;28;20441;-48
2022/11/26 04:49:09;;;;;;;3.03;2.30;;;3.00;99.90;;;;;;5094301;28;20859;-48
2022/11/26 04:51:35;;;;;;;2.77;2.10;;;3.00;99.90;;;;;;5094020;28;20553;-49
2022/11/26 04:54:02;;;;;;;2.10;1.90;;;3.10;99.90;;;;;;5093806;28;20447;-48
2022/11/26 04:56:29;;;;;;;1.87;1.50;;;3.10;99.90;;;;;;5093416;28;20444;-48
2022/11/26 04:58:56;;;;;;;2.20;1.70;;;3.00;99.90;;;;;;5093823;28;20536;-49
2022/11/26 05:01:24;;;;;;;2.10;1.50;;;3.10;99.90;;;;;;5093954;28;20551;-48
2022/11/26 05:03:51;;;;;;;3.27;2.50;;;3.10;99.90;;;;;;5093539;28;21064;-48
2022/11/26 05:06:18;;;;;;;3.53;2.40;;;3.00;99.90;;;;;;5093623;28;20445;-48
2022/11/26 05:08:45;;;;;;;3.80;2.57;;;3.10;99.90;;;;;;5093520;28;20440;-48
2022/11/26 05:11:11;;;;;;;2.97;2.53;;;3.10;99.90;;;;;;5093593;28;20989;-48
2022/11/26 05:13:38;;;;;;;3.20;2.47;;;3.10;99.90;;;;;;5093423;28;20941;-48
2022/11/26 05:16:05;;;;;;;4.40;2.57;;;3.10;99.90;;;;;;5093557;28;20444;-48
2022/11/26 05:18:34;;;;;;;3.37;2.43;;;2.70;99.90;;;;;;5093453;28;20585;-49
2022/11/26 05:21:00;;;;;;;3.37;2.43;;;2.50;99.90;;;;;;5093526;28;20826;-48
2022/11/26 05:23:27;;;;;;;2.50;2.30;;;2.50;99.90;;;;;;5093444;28;21104;-49
2022/11/26 05:25:54;;;;;;;2.50;2.10;;;2.70;99.90;;;;;;5093578;28;20519;-48
2022/11/26 05:28:21;;;;;;;2.83;2.00;;;2.70;99.90;;;;;;5093441;28;20805;-48
2022/11/26 05:30:48;;;;;;;2.20;2.00;;;2.90;99.90;;;;;;5093378;28;20463;-50
2022/11/26 05:33:15;;;;;;;2.63;2.20;;;2.80;99.90;;;;;;5093038;28;20514;-48
2022/11/26 05:35:43;;;;;;;5.47;2.10;;;2.90;99.90;;;;;;5092990;28;20432;-49
2022/11/26 05:38:09;;;;;;;3.40;2.50;;;2.80;99.90;;;;;;5093103;28;20527;-50
2022/11/26 05:40:36;;;;;;;3.90;2.67;;;3.00;99.90;;;;;;5092799;28;20988;-50
2022/11/26 05:43:03;;;;;;;3.60;3.30;;;3.00;99.90;;;;;;5092902;28;20568;-48
2022/11/26 05:45:30;;;;;;;11.17;6.97;;;2.90;99.90;;;;;;5093141;28;20527;-48
2022/11/26 05:47:57;;;;;;;3.37;3.07;;;2.80;99.90;;;;;;5092977;28;20440;-51
2022/11/26 05:50:23;;;;;;;4.47;4.07;;;2.30;99.90;;;;;;5092713;28;20445;-48
2022/11/26 05:52:52;;;;;;;4.40;4.00;;;2.30;99.90;;;;;;5092919;28;20535;-50
2022/11/26 05:55:19;;;;;;;5.33;4.13;;;2.20;99.90;;;;;;5091909;28;20440;-48
2022/11/26 05:57:46;;;;;;;4.00;3.70;;;2.20;99.90;;;;;;5092466;28;20505;-48
2022/11/26 06:00:14;;;;;;;7.90;4.37;;;2.20;99.90;;;;;;5092527;28;20436;-48
2022/11/26 06:02:41;;;;;;;8.63;4.57;;;2.30;99.90;;;;;;5092355;28;20976;-48
2022/11/26 06:05:08;;;;;;;4.43;4.03;;;2.40;99.90;;;;;;5092601;28;20888;-51
2022/11/26 06:07:37;;;;;;;6.20;3.73;;;2.60;99.90;;;;;;5092817;28;20486;-48
2022/11/26 06:10:07;;;;;;;5.30;3.30;;;2.80;99.90;;;;;;5092619;28;21141;-48
2022/11/26 06:12:34;;;;;;;3.03;2.60;;;2.90;99.90;;;;;;5092584;28;20547;-48
2022/11/26 06:15:01;;;;;;;6.30;3.40;;;2.90;99.90;;;;;;5092082;28;20789;-48
2022/11/26 06:17:28;;;;;;;3.03;2.73;;;3.00;99.90;;;;;;5092372;28;20451;-48
2022/11/26 06:19:55;;;;;;;2.57;2.17;;;3.00;99.90;;;;;;5092554;28;20821;-51
2022/11/26 06:22:21;;;;;;;2.90;2.30;;;2.80;99.90;;;;;;5092387;28;20456;-47
2022/11/26 06:24:48;;;;;;;2.80;1.80;;;3.00;99.90;;;;;;5092058;28;20448;-48
2022/11/26 06:27:16;;;;;;;4.70;3.00;;;3.00;99.90;;;;;;5092119;28;20436;-51
2022/11/26 06:29:43;;;;;;;5.17;4.70;;;3.10;99.90;;;;;;5091917;28;20444;-51
2022/11/26 06:32:10;;;;;;;5.50;4.67;;;3.10;99.90;;;;;;5092016;28;20472;-48
2022/11/26 06:34:37;;;;;;;6.30;4.80;;;2.90;99.90;;;;;;5091827;28;20971;-48
2022/11/26 06:37:04;;;;;;;5.77;5.10;;;2.70;99.90;;;;;;5092021;28;20539;-50
2022/11/26 06:39:31;;;;;;;16.83;6.13;;;2.50;99.90;;;;;;5091910;28;20436;-49
2022/11/26 06:41:57;;;;;;;7.50;6.13;;;2.40;99.90;;;;;;5091591;28;20464;-48
2022/11/26 06:44:26;;;;;;;9.17;6.77;;;2.20;99.90;;;;;;5091857;28;20856;-50
2022/11/26 06:46:52;;;;;;;7.83;6.87;;;2.40;99.90;;;;;;5092060;28;20442;-50
2022/11/26 06:49:19;;;;;;;6.63;5.90;;;2.40;99.90;;;;;;5092045;28;20440;-49
2022/11/26 06:51:46;;;;;;;5.23;4.70;;;2.50;99.90;;;;;;5091764;28;20470;-49
2022/11/26 06:54:14;;;;;;;537.03;176.93;;;2.60;99.90;;;;;;5091214;28;20440;-51
2022/11/26 06:56:40;;;;;;;802.43;276.30;;;7.00;99.90;;;;;;5091098;28;20456;-48
2022/11/26 06:59:07;;;;;;;62.43;24.10;;;9.20;99.90;;;;;;5091774;28;20464;-51
2022/11/26 07:01:36;;;;;;;4.80;3.67;;;12.30;99.90;;;;;;5091631;28;20543;-49
2022/11/26 07:04:02;;;;;;;3.97;2.00;;;8.10;99.90;;;;;;5091285;28;20478;-48
2022/11/26 07:06:31;;;;;;;2.23;2.03;;;5.50;99.90;;;;;;5091370;28;20475;-48
2022/11/26 07:09:03;;;;;;;2.47;2.27;;;4.30;99.90;;;;;;5091819;28;20486;-49
2022/11/26 07:11:30;;;;;;;4.67;4.27;;;3.90;99.90;;;;;;5091842;28;20468;-48
2022/11/26 07:13:57;;;;;;;8.67;6.47;;;3.60;99.90;;;;;;5091182;28;20952;-49
2022/11/26 07:16:24;;;;;;;7.17;6.37;;;3.40;99.90;;;;;;5091762;28;20803;-48
2022/11/26 07:18:54;;;;;;;6.43;5.87;;;3.30;99.90;;;;;;5091423;28;20467;-50
2022/11/26 07:21:21;;;;;;;6.30;5.70;;;3.20;99.90;;;;;;5091225;28;20505;-49
2022/11/26 07:23:49;;;;;;;6.53;5.50;;;3.20;99.90;;;;;;5091294;28;20894;-48
2022/11/26 07:26:17;;;;;;;5.77;4.73;;;3.20;99.90;;;;;;5091577;28;20448;-48
2022/11/26 07:28:46;;;;;;;4.93;4.00;;;3.20;99.90;;;;;;5091649;28;20527;-49
2022/11/26 07:31:15;;;;;;;8.77;6.10;;;3.20;99.90;;;;;;5091338;28;20515;-50
2022/11/26 07:33:42;;;;;;;6.50;5.90;;;3.30;99.90;;;;;;5090938;28;20555;-49
2022/11/26 07:36:15;;;;;;;9.17;6.63;;;3.20;99.90;;;;;;5091736;28;20440;-48
2022/11/26 07:38:43;;;;;;;8.93;7.93;;;3.10;99.90;;;;;;5091013;28;21018;-48
2022/11/26 07:41:12;;;;;;;9.93;8.93;;;2.90;99.90;;;;;;5091161;28;20923;-48
2022/11/26 07:43:40;;;;;;;10.73;7.73;;;3.00;99.90;;;;;;5091028;28;20568;-48
2022/11/26 07:46:09;;;;;;;7.67;6.90;;;3.10;99.90;;;;;;5091111;28;20531;-49
2022/11/26 07:48:38;;;;;;;7.33;6.63;;;3.20;99.90;;;;;;5091017;28;20527;-48
2022/11/26 07:51:07;;;;;;;8.97;8.07;;;3.30;99.90;;;;;;5091121;28;20473;-49
2022/11/26 07:53:36;;;;;;;8.87;7.50;;;3.40;99.90;;;;;;5090940;28;20442;-48
2022/11/26 07:56:04;;;;;;;9.67;7.90;;;3.40;99.90;;;;;;5091293;28;20440;-48
2022/11/26 07:58:31;;;;;;;9.67;7.40;;;3.40;99.90;;;;;;5090881;28;20531;-48
2022/11/26 08:00:57;;;;;;;6.37;5.77;;;3.20;99.90;;;;;;5091029;28;20986;-49
2022/11/26 08:03:24;;;;;;;4.30;4.00;;;3.20;99.90;;;;;;5091244;28;20479;-48
2022/11/26 08:05:51;;;;;;;5.17;3.77;;;3.20;99.90;;;;;;5091032;28;20443;-50
2022/11/26 08:08:18;;;;;;;5.07;2.90;;;3.20;99.90;;;;;;5091092;28;20447;-48
2022/11/26 08:10:46;;;;;;;4.40;3.80;;;3.20;99.90;;;;;;5090557;28;20456;-48
2022/11/26 08:13:13;;;;;;;4.87;3.63;;;3.40;99.90;;;;;;5089633;28;20815;-48
2022/11/26 08:15:40;;;;;;;8.50;6.00;;;3.60;99.90;;;;;;5090664;28;20452;-48
2022/11/26 08:18:06;;;;;;;7.30;6.60;;;3.60;99.90;;;;;;5091335;28;20469;-49
2022/11/26 08:20:33;;;;;;;6.70;5.70;;;3.60;99.90;;;;;;5094740;28;20441;-48
2022/11/26 08:23:00;;;;;;;9.30;7.30;;;3.60;99.90;;;;;;5094450;28;20445;-48
2022/11/26 08:25:27;;;;;;;8.90;7.83;;;3.60;99.90;;;;;;5094433;28;21053;-51
2022/11/26 08:27:55;;;;;;;9.20;8.30;;;3.70;99.90;;;;;;5094525;28;20447;-48
2022/11/26 08:30:22;;;;;;;8.97;7.97;;;3.70;99.90;;;;;;5093150;28;20436;-50
2022/11/26 08:32:49;;;;;;;6.50;5.90;;;3.80;99.90;;;;;;5095105;28;20590;-48
2022/11/26 08:35:15;;;;;;;8.50;6.83;;;3.80;99.90;;;;;;5094066;28;20436;-49
2022/11/26 08:37:42;;;;;;;6.93;6.23;;;3.80;99.90;;;;;;5092820;28;20807;-48
2022/11/26 08:40:10;;;;;;;8.00;7.30;;;3.70;99.90;;;;;;5092856;28;20454;-48
2022/11/26 08:42:36;;;;;;;7.80;7.07;;;3.70;99.90;;;;;;5093799;28;20456;-48
2022/11/26 08:45:05;;;;;;;9.40;8.50;;;3.70;99.90;;;;;;5093586;28;20916;-48
2022/11/26 08:47:32;;;;;;;8.93;8.10;;;3.80;99.90;;;;;;5093826;28;20460;-52
2022/11/26 08:49:59;;;;;;;8.47;7.67;;;3.80;99.90;;;;;;5093636;28;20437;-48
2022/11/26 08:52:26;;;;;;;9.97;8.97;;;3.70;99.90;;;;;;5094046;28;20472;-49
2022/11/26 08:54:52;;;;;;;9.27;8.30;;;3.60;99.90;;;;;;5092233;28;20931;-47
2022/11/26 08:57:19;;;;;;;8.40;7.23;;;3.40;99.90;;;;;;5093021;28;20455;-49
2022/11/26 08:59:47;;;;;;;7.77;7.07;;;3.40;99.90;;;;;;5093879;28;20444;-49
2022/11/26 09:02:15;;;;;;;10.80;8.37;;;3.30;99.90;;;;;;5093176;28;20465;-48
2022/11/26 09:04:42;;;;;;;8.53;7.40;;;3.40;99.90;;;;;;5093320;28;20475;-49
2022/11/26 09:07:09;;;;;;;5.97;5.37;;;3.30;99.90;;;;;;5093594;28;20448;-48
2022/11/26 09:09:35;;;;;;;7.23;6.57;;;3.40;99.90;;;;;;5093792;28;20904;-48
2022/11/26 09:12:02;;;;;;;6.20;5.60;;;3.50;99.90;;;;;;5091887;28;20546;-48
2022/11/26 09:14:34;;;;;;;8.23;6.17;;;3.50;99.90;;;;;;5091728;28;20586;-49
2022/11/26 09:17:01;;;;;;;6.83;6.13;;;3.50;99.90;;;;;;5092125;28;20991;-48
2022/11/26 09:19:30;;;;;;;8.27;7.47;;;3.70;99.90;;;;;;5091474;28;20896;-50
2022/11/26 09:21:57;;;;;;;8.13;7.30;;;3.80;99.90;;;;;;5091706;28;20547;-51
2022/11/26 09:24:24;;;;;;;7.57;6.80;;;3.90;99.90;;;;;;5092510;28;20566;-49
2022/11/26 09:26:51;;;;;;;9.07;5.80;;;4.00;99.90;;;;;;5093183;28;20535;-49
2022/11/26 09:29:21;;;;;;;31.53;8.30;;;4.00;99.90;;;;;;5093197;28;20953;-48
2022/11/26 09:31:48;;;;;;;7.33;6.50;;;4.10;99.90;;;;;;5093131;28;20475;-48
2022/11/26 09:34:15;;;;;;;7.00;6.27;;;3.90;99.90;;;;;;5092611;28;20532;-48
2022/11/26 09:36:44;;;;;;;8.73;6.83;;;3.80;99.90;;;;;;5093216;28;20468;-49
2022/11/26 09:39:12;;;;;;;7.97;7.20;;;3.90;99.90;;;;;;5092759;28;20934;-48
2022/11/26 09:41:44;;;;;;;13.83;9.13;;;4.10;99.90;;;;;;5092868;28;20551;-48
2022/11/26 09:44:26;;;;;;;9.70;8.03;;;4.10;99.90;;;;;;5093066;28;20567;-47
2022/11/26 09:47:04;;;;;;;9.32;8.43;;;4.20;99.90;;;;;;5091337;28;20527;-49
2022/11/26 09:49:35;;;;;;;10.17;7.53;;;4.20;99.90;;;;;;5092481;28;20214;-49
2022/11/26 09:52:05;;;;;;;10.10;9.13;;;4.20;99.90;;;;;;5091816;28;20546;-50
2022/11/26 09:54:32;;;;;;;8.33;7.30;;;4.10;99.90;;;;;;5092373;28;20552;-49
2022/11/26 09:57:07;;;;;;;8.43;7.53;;;4.00;99.90;;;;;;5091644;28;20501;-49
2022/11/26 09:59:35;;;;;;;6.87;5.90;;;4.00;99.90;;;;;;5092200;28;20534;-49
2022/11/26 10:02:02;;;;;;;7.17;6.47;;;4.10;99.90;;;;;;5092432;28;20549;-49
2022/11/26 10:04:33;;;;;;;6.97;6.27;;;4.20;99.90;;;;;;5092494;28;20471;-48
2022/11/26 10:07:06;;;;;;;6.10;5.50;;;4.20;99.90;;;;;;5092691;28;20443;-49
2022/11/26 10:09:56;;;;;;;5.93;5.30;;;4.30;99.90;;;;;;5092807;28;20442;-50
2022/11/26 10:12:32;;;;;;;5.83;4.90;;;5.30;99.90;;;;;;5092302;28;21001;-50
2022/11/26 10:15:08;;;;;;;6.70;5.00;;;7.20;99.90;;;;;;5092098;28;20438;-49
2022/11/26 10:17:46;;;;;;;4.93;4.20;;;5.80;99.90;;;;;;5092414;28;20526;-50
2022/11/26 10:21:03;;;;;;;4.67;3.80;;;5.10;99.90;;;;;;5092698;28;20531;-49
2022/11/26 10:23:38;;;;;;;5.85;4.70;;;4.70;99.90;;;;;;5028569;28;20520;-49
2022/11/26 10:26:13;;;;;;;6.73;4.97;;;4.60;99.90;;;;;;5088939;28;20193;-48
2022/11/26 10:28:45;;;;;;;8.43;4.70;;;5.50;99.90;;;;;;5092557;28;20532;-48
2022/11/26 10:31:19;;;;;;;11.63;4.30;;;5.30;99.90;;;;;;5092030;28;20572;-48
2022/11/26 10:33:53;;;;;;;5.43;4.40;;;5.00;99.90;;;;;;5092190;28;20437;-48
2022/11/26 10:36:24;;;;;;;7.00;5.03;;;4.90;99.90;;;;;;5091771;28;20450;-49
2022/11/26 10:38:55;;;;;;;5.33;3.93;;;4.80;99.90;;;;;;5092015;28;20536;-48
2022/11/26 10:41:23;;;;;;;7.67;3.93;;;4.90;99.90;;;;;;5091593;28;21158;-48
2022/11/26 10:43:50;;;;;;;5.33;4.30;;;5.50;99.90;;;;;;5091859;28;20528;-52
2022/11/26 10:46:31;;;;;;;4.30;3.90;;;5.60;99.90;;;;;;5092020;28;20445;-48
2022/11/26 10:49:15;;;;;;;4.20;3.67;;;6.00;99.90;;;;;;5092210;28;20515;-49
2022/11/26 10:51:47;;;;;;;4.23;3.83;;;6.70;99.90;;;;;;5092035;28;20544;-52
2022/11/26 10:54:25;;;;;;;5.77;5.27;;;6.00;99.90;;;;;;5091595;28;20435;-50
2022/11/26 10:56:52;;;;;;;5.73;4.47;;;5.50;99.90;;;;;;5091471;28;20524;-49
2022/11/26 10:59:24;;;;;;;4.23;3.83;;;5.30;99.90;;;;;;5091642;28;20442;-51
2022/11/26 11:01:52;;;;;;;4.30;3.90;;;5.30;99.90;;;;;;5091484;28;21070;-49
2022/11/26 11:04:26;;;;;;;4.47;4.07;;;5.20;99.90;;;;;;5091391;28;20474;-48
2022/11/26 11:06:53;;;;;;;4.33;3.20;;;5.20;99.90;;;;;;5091619;28;20526;-49
2022/11/26 11:09:31;;;;;;;4.10;3.37;;;5.20;99.90;;;;;;5091258;28;20952;-49
2022/11/26 11:12:20;;;;;;;5.13;3.97;;;5.30;99.90;;;;;;5091412;28;20549;-49
2022/11/26 11:14:49;;;;;;;5.43;3.60;;;5.30;99.90;;;;;;5091212;28;20442;-48
2022/11/26 11:17:29;;;;;;;5.50;3.67;;;5.30;99.90;;;;;;5091586;28;20961;-50
2022/11/26 11:19:57;;;;;;;4.53;3.77;;;5.40;99.90;;;;;;5091298;28;20525;-49
2022/11/26 11:22:24;;;;;;;3.90;3.60;;;5.30;99.90;;;;;;5091280;28;20458;-48
2022/11/26 11:24:53;;;;;;;5.10;3.23;;;5.30;99.90;;;;;;5091119;28;20568;-49
2022/11/26 11:27:24;;;;;;;5.37;3.53;;;5.40;99.90;;;;;;5091153;28;20451;-49
2022/11/26 11:29:52;;;;;;;3.63;3.33;;;5.50;99.90;;;;;;5091069;28;20453;-49
2022/11/26 11:32:36;;;;;;;4.90;3.70;;;5.60;99.90;;;;;;5090895;28;20562;-49
2022/11/26 11:35:21;;;;;;;5.97;4.27;;;5.50;99.90;;;;;;5091276;28;20521;-49
2022/11/26 11:37:49;;;;;;;4.40;2.90;;;6.00;99.90;;;;;;5091172;28;20462;-50
2022/11/26 11:40:24;;;;;;;18.33;9.03;;;5.80;99.90;;;;;;5091235;28;20530;-50
2022/11/26 11:42:52;;;;;;;5.60;3.50;;;8.30;99.90;;;;;;5091062;28;20461;-50
2022/11/26 11:45:29;;;;;;;57.53;23.07;;;7.00;99.90;;;;;;5090980;28;20999;-49
2022/11/26 11:48:00;;;;;;;41.93;15.90;;;9.70;99.90;;;;;;5091270;28;20851;-49
2022/11/26 11:50:32;;;;;;;5.23;3.67;;;10.40;99.90;;;;;;5091419;28;20531;-49
2022/11/26 11:53:15;;;;;;;9.00;4.63;;;8.40;99.90;;;;;;5090774;28;20993;-49
2022/11/26 11:56:07;;;;;;;4.07;3.67;;;7.30;99.90;;;;;;5095038;28;20943;-49
2022/11/26 11:58:59;;;;;;;5.67;4.10;;;6.50;99.90;;;;;;5094980;28;20982;-49
2022/11/26 12:01:45;;;;;;;3.43;3.10;;;6.20;99.90;;;;;;5094761;28;20459;-49
2022/11/26 12:04:23;;;;;;;5.20;3.70;;;6.10;99.90;;;;;;5094374;28;20500;-49
2022/11/26 12:07:11;;;;;;;5.03;3.30;;;6.00;99.90;;;;;;5094145;28;20449;-48
2022/11/26 12:09:43;;;;;;;7.67;4.30;;;5.90;99.90;;;;;;5094510;28;20439;-50
2022/11/26 12:12:23;;;;;;;4.50;3.93;;;5.90;99.90;;;;;;5094427;28;20466;-49
2022/11/26 12:14:54;;;;;;;317.93;87.90;;;5.90;99.90;;;;;;5093626;28;20442;-50
2022/11/26 12:17:30;;;;;;;14.70;7.10;;;6.50;99.90;;;;;;5093270;28;20508;-49
2022/11/26 12:20:03;;;;;;;5.50;4.03;;;6.90;99.90;;;;;;5093248;28;20443;-48
2022/11/26 12:22:36;;;;;;;4.67;3.67;;;6.50;99.90;;;;;;5093155;28;20474;-50
2022/11/26 12:25:14;;;;;;;7.17;6.10;;;6.10;99.90;;;;;;5092898;28;20575;-49
2022/11/26 12:27:47;;;;;;;4.97;3.97;;;6.00;99.90;;;;;;5092931;28;20557;-51
2022/11/26 12:30:16;;;;;;;5.43;4.50;;;6.00;99.90;;;;;;5093936;28;20535;-49
2022/11/26 12:32:48;;;;;;;4.47;4.07;;;5.90;99.90;;;;;;5094085;28;20585;-50
2022/11/26 12:35:19;;;;;;;4.80;4.30;;;5.90;99.90;;;;;;5094349;28;20443;-48
2022/11/26 12:37:51;;;;;;;5.30;4.03;;;5.90;99.90;;;;;;5094295;28;20435;-49
2022/11/26 12:40:30;;;;;;;5.20;4.27;;;5.80;99.90;;;;;;5093748;28;20606;-49
2022/11/26 12:43:04;;;;;;;5.27;4.23;;;6.00;99.90;;;;;;5093569;28;20438;-48
2022/11/26 12:45:42;;;;;;;4.47;3.87;;;5.90;99.90;;;;;;5094221;28;20921;-49
2022/11/26 12:48:31;;;;;;;5.30;3.80;;;5.80;99.90;;;;;;5094175;28;20534;-49
2022/11/26 12:51:09;;;;;;;5.43;4.50;;;5.80;99.90;;;;;;5093977;28;20550;-49
2022/11/26 12:53:44;;;;;;;4.97;4.40;;;5.80;99.90;;;;;;5093928;28;20449;-48
2022/11/26 12:56:19;;;;;;;6.43;4.43;;;5.90;99.90;;;;;;5093549;28;20778;-48
2022/11/26 12:58:59;;;;;;;5.37;3.90;;;5.90;99.90;;;;;;5093964;28;20450;-49
2022/11/26 13:01:27;;;;;;;5.50;3.30;;;6.00;99.90;;;;;;5093887;28;20457;-48
2022/11/26 13:03:54;;;;;;;4.97;4.47;;;6.00;99.90;;;;;;5093356;28;20529;-48
2022/11/26 13:06:31;;;;;;;4.17;3.20;;;6.00;99.90;;;;;;5093293;28;20479;-50
2022/11/26 13:09:07;;;;;;;6.27;5.10;;;6.10;99.90;;;;;;5093642;28;20443;-50
2022/11/26 13:11:42;;;;;;;3.90;3.50;;;6.10;99.90;;;;;;5092140;28;20554;-48